Louisville International Standiford Field
KSDF : rendu visible

Aérodrome :











RETROUVEZ-NOUS SUR...

 
LOGIN :

S'inscrire | Disclaimer

   EN    FR    IT 

 









Légende :    VFR   VFR Marginal   IFR   IFR Intensif   IFR Très Intensif
Visi : 
Plafond : 
>= 8 km
>= 3000ft
5 à 8 km
1000 à 3000 ft
1500m à 5 km
500 à 1000 ft
800 à 1500m
200 à 500 ft
< 800m
< 200 ft
Symboles :   Orages  Brouillard  Fortes neiges  Fortes précipitations  Vent > 20 kt







- Altitude de l'aérodrome : 501 ft
- Code IATA : SDF


KSDF - Louisville International Standiford Field

DERNIER METAR :
  • 250956Z 36003KT 10SM FEW200 18/13 A3005 RMK AO2 SLPNO T01810128 $

METARs EXPIRÉS :
  • 250856Z 05004KT 10SM FEW200 19/12 A3006 RMK AO2 SLPNO T01890120 $
  • 250756Z 04004KT 10SM FEW200 19/12 A3007 RMK AO2 SLPNO T01940123 $

TAF KSDF
Valide du 25 à 06h jusqu'au 26 à 12h UTC


250520Z 2506/2612 06007KT P6SM SCT250
FM251200 08006KT P6SM BKN250
FM251800 11007KT P6SM SCT045 BKN150
PROB30 2522/2604 4SM -SHRA BKN030
FM260400 14006KT P6SM VCSH SCT025 BKN040
PROB30 2606/2612 3SM -TSRA BKN025CB
Pas de NOTAMs connus pour ce terrain.



MET'MAP, la Météo Aéronautique d'un coup d'oeil ! - Copyright ORBIFLY Décembre 2007 - Disclaimer

ORBIFLY MET'MAP TEAM :

Programmation & Développement : Alexandra Zaïnal
Conception & Développement : Baudouin d'Aumeries
Co-Programmation & Développement : Marc-Olivier Méhu
Soutien technique & logistique : Manuel Goepfert

Contact : metmap@orbifly.com




SOURCES & CREDITS :

   NOAA       Earth
Advisory